Time;durP1;ratioP1;P1;durP2;ratioP2;P2;SDS_P1;SDS_P2;PMS_P1;PMS_P2;Temp;Humidity;BMP_temperature;BMP_pressure;BME280_temperature;BME280_humidity;BME280_pressure;Samples;Min_cycle;Max_cycle;Signal;HPM_P1;HPM_P2
2023/05/20 00:00:49;;;;;;;6.23;3.33;;;;;;;10.83;78.27;102108.00;4900795;29;20506;-77
2023/05/20 00:03:21;;;;;;;3.80;3.40;;;;;;;10.78;78.91;102104.97;4887859;29;20465;-76
2023/05/20 00:05:53;;;;;;;5.37;3.83;;;;;;;10.70;79.12;102104.13;4898961;29;21049;-77
2023/05/20 00:08:23;;;;;;;5.43;3.70;;;;;;;10.62;79.56;102102.31;4900064;29;20441;-76
2023/05/20 00:10:53;;;;;;;5.70;3.80;;;;;;;10.63;80.06;102104.00;4899073;29;20450;-76
2023/05/20 00:13:23;;;;;;;7.40;4.25;;;;;;;10.67;80.05;102104.47;4888877;29;20476;-78
2023/05/20 00:15:53;;;;;;;4.63;3.70;;;;;;;10.64;80.51;102102.97;4881928;29;20186;-76
2023/05/20 00:18:24;;;;;;;5.40;4.17;;;;;;;10.63;80.66;102093.16;4885623;29;20513;-78
2023/05/20 00:20:54;;;;;;;5.90;3.43;;;;;;;10.63;80.73;102097.72;4892226;29;20454;-77
2023/05/20 00:23:28;;;;;;;4.10;3.70;;;;;;;10.55;81.07;102093.19;4902029;29;20421;-77
2023/05/20 00:25:57;;;;;;;4.73;3.43;;;;;;;10.53;81.29;102100.63;4899841;29;20454;-77
2023/05/20 00:28:29;;;;;;;5.35;3.58;;;;;;;10.49;82.08;102101.16;4897754;29;20821;-76
2023/05/20 00:31:01;;;;;;;4.80;4.10;;;;;;;10.57;81.90;102099.25;4885121;29;20195;-77
2023/05/20 00:33:32;;;;;;;5.75;3.28;;;;;;;10.54;82.33;102091.50;4898196;29;20223;-77
2023/05/20 00:36:01;;;;;;;3.90;3.30;;;;;;;10.50;82.42;102092.88;4898586;29;20192;-77
2023/05/20 00:38:30;;;;;;;5.53;3.80;;;;;;;10.48;82.87;102089.47;4898394;29;20319;-77
2023/05/20 00:41:00;;;;;;;5.07;3.77;;;;;;;10.38;83.28;102092.38;4898797;29;20190;-77
2023/05/20 00:43:29;;;;;;;4.27;3.87;;;;;;;10.31;83.80;102102.19;4894076;29;20433;-77
2023/05/20 00:46:02;;;;;;;4.63;3.63;;;;;;;10.32;83.95;102103.88;4890384;29;20476;-76
2023/05/20 00:48:39;;;;;;;5.13;3.97;;;;;;;10.26;84.52;102103.72;4899225;29;20244;-79
2023/05/20 00:51:10;;;;;;;4.10;3.10;;;;;;;10.22;85.06;102105.06;4898436;29;20243;-79
2023/05/20 00:53:40;;;;;;;6.03;4.20;;;;;;;10.25;85.24;102102.03;4889150;29;20458;-79
2023/05/20 00:56:10;;;;;;;4.20;3.80;;;;;;;10.25;85.27;102099.34;4882362;29;20193;-78
2023/05/20 00:58:40;;;;;;;5.40;3.47;;;;;;;10.26;85.38;102104.53;4927382;29;20326;-79
2023/05/20 01:01:09;;;;;;;4.15;3.58;;;;;;;10.23;85.75;102098.66;4898602;29;20461;-78
2023/05/20 01:03:41;;;;;;;4.78;3.83;;;;;;;10.23;86.04;102095.94;4899227;29;20550;-77
2023/05/20 01:06:11;;;;;;;5.80;4.38;;;;;;;10.16;86.60;102089.53;4901798;29;20250;-77
2023/05/20 01:08:41;;;;;;;7.63;4.68;;;;;;;10.18;86.76;102082.06;4888966;29;20241;-78
2023/05/20 01:11:16;;;;;;;7.80;4.90;;;;;;;10.17;87.20;102083.09;4902218;29;20197;-78
2023/05/20 01:13:47;;;;;;;8.18;4.60;;;;;;;10.19;87.19;102078.38;4902700;29;20205;-77
2023/05/20 01:16:20;;;;;;;8.00;4.00;;;;;;;10.14;87.60;102078.00;4902143;29;20183;-77
2023/05/20 01:18:56;;;;;;;6.63;4.88;;;;;;;10.11;88.01;102081.91;4940182;29;20236;-78
2023/05/20 01:21:27;;;;;;;5.00;4.03;;;;;;;10.10;88.48;102080.22;4899947;29;20222;-78
2023/05/20 01:23:58;;;;;;;6.55;4.45;;;;;;;10.12;88.21;102083.56;4933700;29;20206;-77
2023/05/20 01:26:27;;;;;;;6.50;4.53;;;;;;;10.06;88.67;102080.72;4899602;29;20213;-76
2023/05/20 01:28:56;;;;;;;4.40;3.67;;;;;;;10.07;89.13;102079.72;4899513;29;20222;-79
2023/05/20 01:31:29;;;;;;;5.72;3.90;;;;;;;10.01;89.49;102084.78;4899779;29;20200;-77
2023/05/20 01:34:00;;;;;;;7.37;4.00;;;;;;;9.96;89.58;102080.88;4898915;29;20197;-77
2023/05/20 01:36:30;;;;;;;4.78;3.55;;;;;;;9.98;89.83;102071.56;4899745;29;20464;-78
2023/05/20 01:39:04;;;;;;;5.88;4.07;;;;;;;10.03;89.51;102069.22;4898341;29;20731;-75
2023/05/20 01:41:35;;;;;;;4.30;3.60;;;;;;;9.92;90.02;102066.03;4898455;29;20632;-77
2023/05/20 01:44:05;;;;;;;4.68;3.55;;;;;;;9.88;90.52;102061.94;4898624;29;20202;-80
2023/05/20 01:46:36;;;;;;;6.38;4.75;;;;;;;9.83;90.82;102067.88;4898860;29;20223;-78
2023/05/20 01:49:08;;;;;;;6.63;3.60;;;;;;;9.85;90.93;102065.84;4898186;29;20232;-76
2023/05/20 01:51:37;;;;;;;6.57;4.13;;;;;;;9.68;91.74;102072.28;4896753;29;20205;-77
2023/05/20 01:54:08;;;;;;;10.35;4.95;;;;;;;9.70;91.94;102074.78;4881152;29;20560;-77
2023/05/20 01:56:38;;;;;;;4.93;4.43;;;;;;;9.68;92.20;102069.56;4887848;29;20186;-77
2023/05/20 01:59:08;;;;;;;6.72;4.13;;;;;;;9.62;92.64;102059.44;4900943;29;20303;-76
2023/05/20 02:01:37;;;;;;;9.32;4.15;;;;;;;9.60;93.34;102061.44;4904971;29;20221;-76
2023/05/20 02:04:07;;;;;;;6.15;4.90;;;;;;;9.66;92.83;102055.38;4905618;29;20188;-80
2023/05/20 02:06:36;;;;;;;4.40;4.00;;;;;;;9.65;93.04;102056.38;4890663;29;20217;-76
2023/05/20 02:09:08;;;;;;;5.13;4.63;;;;;;;9.66;93.25;102049.97;4888843;29;20237;-79
2023/05/20 02:11:37;;;;;;;6.28;4.10;;;;;;;9.66;93.29;102049.97;4902699;29;20231;-76
2023/05/20 02:14:07;;;;;;;6.88;4.90;;;;;;;9.58;93.42;102058.06;4911155;29;20214;-77
2023/05/20 02:16:36;;;;;;;4.68;4.00;;;;;;;9.60;93.69;102053.31;4909267;29;20208;-77
2023/05/20 02:19:11;;;;;;;9.30;4.38;;;;;;;9.59;93.85;102054.34;4904474;29;20231;-76
2023/05/20 02:21:42;;;;;;;4.28;3.80;;;;;;;9.64;93.55;102057.38;4903708;29;20677;-77
2023/05/20 02:24:23;;;;;;;8.52;5.80;;;;;;;9.55;93.83;102056.53;4932162;29;20199;-78
2023/05/20 02:26:54;;;;;;;5.80;4.68;;;;;;;9.64;93.59;102057.38;4902303;29;20243;-75
2023/05/20 02:29:23;;;;;;;5.90;5.38;;;;;;;9.57;93.58;102065.34;4902472;29;20481;-78
2023/05/20 02:31:53;;;;;;;6.18;4.82;;;;;;;9.55;94.07;102058.38;4903283;29;20220;-77
2023/05/20 02:34:24;;;;;;;5.80;4.00;;;;;;;9.68;93.59;102058.75;4903133;29;20778;-77
2023/05/20 02:36:55;;;;;;;6.70;4.13;;;;;;;9.65;93.23;102059.06;4902785;29;20184;-78
2023/05/20 02:39:27;;;;;;;5.75;4.75;;;;;;;9.68;93.41;102057.91;4900963;29;20816;-76
2023/05/20 02:41:56;;;;;;;5.57;5.05;;;;;;;9.58;93.76;102056.19;4898988;29;20264;-77
2023/05/20 02:44:26;;;;;;;6.97;5.72;;;;;;;9.56;94.27;102060.09;4929881;29;20202;-78
2023/05/20 02:46:56;;;;;;;4.90;4.40;;;;;;;9.46;94.30;102059.41;4898239;29;20239;-79
2023/05/20 02:49:25;;;;;;;6.28;4.63;;;;;;;9.38;94.81;102062.94;4929761;29;20722;-76
2023/05/20 02:51:54;;;;;;;9.32;4.30;;;;;;;9.43;95.27;102062.44;4915818;29;20207;-76
2023/05/20 02:54:25;;;;;;;5.43;4.75;;;;;;;9.46;95.03;102064.81;4884819;29;20204;-80
2023/05/20 02:56:54;;;;;;;5.43;4.50;;;;;;;9.42;95.23;102064.28;4897768;29;20548;-78
2023/05/20 02:59:24;;;;;;;4.95;4.35;;;;;;;9.42;95.38;102058.03;4891424;29;20230;-76
2023/05/20 03:01:53;;;;;;;7.45;4.90;;;;;;;9.40;95.44;102060.06;4928683;29;20228;-77
2023/05/20 03:04:24;;;;;;;8.02;4.45;;;;;;;9.31;95.82;102061.91;4899110;29;20265;-76
2023/05/20 03:06:56;;;;;;;7.95;4.60;;;;;;;9.33;95.91;102065.28;4932459;29;20210;-78
2023/05/20 03:09:27;;;;;;;7.88;4.20;;;;;;;9.43;95.72;102067.84;4901635;29;20218;-77
2023/05/20 03:12:00;;;;;;;8.98;5.18;;;;;;;9.42;95.52;102076.94;4897116;29;20274;-77
2023/05/20 03:14:32;;;;;;;6.35;4.47;;;;;;;9.40;95.58;102071.72;4898747;29;20206;-77
2023/05/20 03:17:02;;;;;;;6.15;4.18;;;;;;;9.46;95.74;102072.91;4898739;29;20190;-77
2023/05/20 03:19:31;;;;;;;8.23;5.00;;;;;;;9.48;95.12;102076.31;4898357;29;20222;-77
2023/05/20 03:22:01;;;;;;;6.57;5.47;;;;;;;9.49;95.79;102075.25;4922090;29;20214;-82
2023/05/20 03:24:31;;;;;;;5.10;4.60;;;;;;;9.61;94.81;102079.34;4897677;29;20220;-77
2023/05/20 03:27:00;;;;;;;8.20;5.68;;;;;;;9.70;94.01;102078.34;4895883;29;20225;-76
2023/05/20 03:29:30;;;;;;;5.72;3.72;;;;;;;9.75;93.57;102080.53;4897859;29;20255;-79
2023/05/20 03:31:59;;;;;;;8.30;4.72;;;;;;;9.72;93.77;102081.72;4900796;29;20205;-79
2023/05/20 03:34:29;;;;;;;8.05;4.97;;;;;;;9.86;93.10;102082.91;4902523;29;20680;-78
2023/05/20 03:36:59;;;;;;;4.38;3.95;;;;;;;9.91;92.37;102085.97;4897639;29;20198;-78
2023/05/20 03:39:28;;;;;;;6.35;5.00;;;;;;;10.25;90.65;102077.69;4896476;29;20234;-78
2023/05/20 03:41:58;;;;;;;5.78;4.03;;;;;;;10.20;90.09;102096.28;4897395;29;20186;-78
2023/05/20 03:44:27;;;;;;;5.82;4.30;;;;;;;10.11;90.80;102098.13;4896205;29;20223;-79
2023/05/20 03:46:57;;;;;;;7.55;4.88;;;;;;;10.13;90.78;102095.22;4897120;29;20254;-78
2023/05/20 03:49:26;;;;;;;6.90;5.30;;;;;;;10.14;90.53;102092.38;4927550;29;20222;-77
2023/05/20 03:51:55;;;;;;;4.10;3.70;;;;;;;10.11;90.74;102100.84;4897211;29;20194;-78
2023/05/20 03:54:24;;;;;;;6.63;4.88;;;;;;;10.14;90.78;102094.22;4895853;29;20424;-78
2023/05/20 03:56:54;;;;;;;6.05;4.72;;;;;;;10.12;90.54;102098.97;4895857;29;20287;-78
2023/05/20 03:59:24;;;;;;;5.25;4.57;;;;;;;10.12;90.35;102104.38;4895547;29;20606;-78
2023/05/20 04:01:53;;;;;;;7.20;4.60;;;;;;;10.13;90.47;102095.22;4899654;29;20185;-78
2023/05/20 04:04:22;;;;;;;5.93;4.55;;;;;;;10.18;90.27;102101.00;4916728;29;20750;-81
2023/05/20 04:06:53;;;;;;;6.15;4.07;;;;;;;10.16;90.04;102092.25;4918274;29;20219;-79
2023/05/20 04:09:22;;;;;;;7.85;4.70;;;;;;;10.20;90.22;102090.88;4915896;29;20220;-80
2023/05/20 04:11:51;;;;;;;9.02;7.40;;;;;;;10.18;89.99;102091.03;4917324;29;20297;-79
2023/05/20 04:14:21;;;;;;;6.65;4.35;;;;;;;10.14;90.21;102088.81;4915977;29;20225;-78
2023/05/20 04:16:51;;;;;;;5.50;4.00;;;;;;;10.11;90.84;102081.91;4898869;29;20234;-79
2023/05/20 04:19:22;;;;;;;8.10;4.47;;;;;;;10.22;90.11;102084.28;4898298;29;20214;-78
2023/05/20 04:21:52;;;;;;;5.45;4.68;;;;;;;10.19;90.43;102089.19;4921133;29;20218;-79
2023/05/20 04:24:24;;;;;;;7.30;4.88;;;;;;;10.25;90.23;102083.09;4905779;29;20724;-78
2023/05/20 04:26:53;;;;;;;7.63;5.70;;;;;;;10.21;90.63;102087.16;4896620;29;20580;-78
2023/05/20 04:29:22;;;;;;;7.30;4.60;;;;;;;10.22;90.47;102091.53;4927882;29;20465;-79
2023/05/20 04:31:53;;;;;;;6.97;4.93;;;;;;;10.24;90.82;102084.97;4901273;29;20217;-77
2023/05/20 04:34:25;;;;;;;8.20;5.13;;;;;;;10.28;90.95;102083.59;4903220;29;20475;-78
2023/05/20 04:36:56;;;;;;;7.60;4.27;;;;;;;10.32;90.88;102079.53;4933084;29;20446;-78
2023/05/20 04:39:26;;;;;;;7.30;4.35;;;;;;;10.34;90.62;102079.34;4890586;29;20471;-78
2023/05/20 04:41:55;;;;;;;13.57;5.70;;;;;;;10.38;90.62;102084.25;4932270;29;20202;-78
2023/05/20 04:44:25;;;;;;;12.60;5.50;;;;;;;10.48;90.00;102086.78;4906053;29;20434;-78
2023/05/20 04:46:56;;;;;;;8.10;5.70;;;;;;;10.52;90.24;102090.81;4906173;29;20320;-77
2023/05/20 04:49:27;;;;;;;6.23;4.10;;;;;;;10.53;90.47;102087.09;4932539;29;20472;-78
2023/05/20 04:51:57;;;;;;;6.30;5.03;;;;;;;10.57;89.97;102088.44;4902073;29;20791;-77
2023/05/20 04:54:26;;;;;;;5.10;4.70;;;;;;;10.61;90.17;102091.63;4932850;29;20454;-78
2023/05/20 04:57:00;;;;;;;7.35;4.18;;;;;;;10.62;90.04;102094.19;4901624;29;20414;-78
2023/05/20 04:59:30;;;;;;;5.97;4.80;;;;;;;10.60;90.27;102085.38;4997528;23;20233;-83
2023/05/20 05:02:00;;;;;;;10.07;4.70;;;;;;;10.62;90.64;102085.22;4925973;29;20201;-81
2023/05/20 05:04:30;;;;;;;8.10;5.07;;;;;;;10.70;90.22;102083.31;4924942;29;20493;-83
2023/05/20 05:06:59;;;;;;;6.57;4.45;;;;;;;10.66;90.31;102087.38;4929201;29;20439;-82
2023/05/20 05:09:28;;;;;;;13.63;6.47;;;;;;;10.71;90.42;102082.31;4930029;29;20232;-82
2023/05/20 05:11:58;;;;;;;7.10;5.50;;;;;;;10.75;90.20;102075.50;4926373;29;20427;-81
2023/05/20 05:14:27;;;;;;;8.67;6.47;;;;;;;10.90;89.62;102076.47;4928907;29;20454;-82
2023/05/20 05:16:56;;;;;;;5.90;5.07;;;;;;;10.92;89.51;102070.03;4934961;29;20432;-82
2023/05/20 05:19:27;;;;;;;5.70;5.07;;;;;;;10.94;89.54;102073.44;4934043;29;20472;-81
2023/05/20 05:21:56;;;;;;;10.10;5.00;;;;;;;11.11;88.97;102075.03;4934824;29;20957;-82
2023/05/20 05:24:29;;;;;;;6.90;4.63;;;;;;;11.07;88.82;102068.28;4921335;29;20462;-81
2023/05/20 05:26:58;;;;;;;7.90;5.77;;;;;;;11.15;88.39;102074.50;4929953;29;20490;-82
2023/05/20 05:29:31;;;;;;;5.40;4.50;;;;;;;11.16;88.69;102076.19;4927188;29;20509;-80
2023/05/20 05:32:00;;;;;;;8.10;5.43;;;;;;;11.17;88.52;102079.75;4936665;29;20422;-83
2023/05/20 05:34:30;;;;;;;6.03;5.43;;;;;;;11.19;88.65;102077.69;4930369;29;20433;-84
2023/05/20 05:37:00;;;;;;;6.27;5.50;;;;;;;11.18;89.07;102081.44;4934143;29;20446;-83
2023/05/20 05:39:30;;;;;;;6.80;6.20;;;;;;;11.18;89.04;102081.44;4946872;29;20470;-83
2023/05/20 05:41:59;;;;;;;8.70;6.13;;;;;;;11.25;89.09;102082.41;4927619;29;20418;-82
2023/05/20 05:44:29;;;;;;;7.00;6.20;;;;;;;11.37;88.69;102081.00;4935809;29;20426;-82
2023/05/20 05:46:58;;;;;;;8.03;5.40;;;;;;;11.47;88.24;102078.91;4947764;29;20700;-81
2023/05/20 05:49:29;;;;;;;7.80;5.10;;;;;;;11.54;87.61;102074.44;4932031;29;20466;-82
2023/05/20 05:51:59;;;;;;;8.67;5.10;;;;;;;11.53;87.85;102075.44;4942122;29;20449;-83
2023/05/20 05:54:29;;;;;;;5.70;5.10;;;;;;;11.62;87.62;102074.38;4937643;29;20430;-84
2023/05/20 05:56:59;;;;;;;10.30;5.07;;;;;;;11.57;87.57;102068.63;4937691;29;20449;-84
2023/05/20 05:59:32;;;;;;;6.23;5.63;;;;;;;11.69;87.17;102064.50;4935558;29;20546;-82
2023/05/20 06:02:01;;;;;;;10.10;6.03;;;;;;;11.74;86.80;102059.41;4932612;29;20465;-83
2023/05/20 06:04:32;;;;;;;6.53;5.30;;;;;;;11.69;87.20;102059.06;4936527;29;20447;-83
2023/05/20 06:07:02;;;;;;;10.40;6.73;;;;;;;11.79;87.22;102058.00;4935880;29;20461;-84
2023/05/20 06:09:31;;;;;;;7.50;5.90;;;;;;;11.77;86.88;102053.59;4937438;29;20529;-81
2023/05/20 06:12:01;;;;;;;12.57;5.60;;;;;;;11.79;86.67;102052.59;4941199;28;20509;-83
2023/05/20 06:14:31;;;;;;;8.17;6.03;;;;;;;11.90;86.51;102063.00;4937504;28;20439;-82
2023/05/20 06:17:01;;;;;;;9.47;5.60;;;;;;;11.82;87.01;102053.06;4941164;29;20451;-82
2023/05/20 06:19:32;;;;;;;6.63;5.57;;;;;;;12.03;85.94;102050.50;4937140;29;20773;-82
2023/05/20 06:22:01;;;;;;;11.00;5.90;;;;;;;12.02;85.83;102058.81;4930374;29;20463;-82
2023/05/20 06:24:30;;;;;;;11.37;5.80;;;;;;;12.05;85.63;102053.03;4927042;29;20476;-82
2023/05/20 06:27:00;;;;;;;10.23;5.37;;;;;;;12.01;85.84;102063.41;4920531;29;20445;-81
2023/05/20 06:29:29;;;;;;;6.80;5.20;;;;;;;11.96;86.17;102067.69;4920294;29;20477;-84
2023/05/20 06:31:59;;;;;;;9.33;5.20;;;;;;;11.94;86.82;102064.34;4921958;29;20548;-83
2023/05/20 06:34:28;;;;;;;6.53;5.77;;;;;;;11.97;86.58;102061.25;4923670;29;20457;-81
2023/05/20 06:36:59;;;;;;;6.63;5.00;;;;;;;11.94;86.76;102064.34;4923514;29;20499;-81
2023/05/20 06:39:29;;;;;;;7.33;4.90;;;;;;;12.00;86.53;102066.31;4920876;29;20441;-81
2023/05/20 06:41:58;;;;;;;6.47;5.83;;;;;;;12.00;86.66;102058.19;4916338;29;20412;-84
2023/05/20 06:44:32;;;;;;;6.70;6.00;;;;;;;12.02;87.21;102058.81;4917166;29;20448;-82
2023/05/20 06:47:16;;;;;;;8.17;7.33;;;;;;;12.15;86.52;102059.88;4917093;29;20445;-82
2023/05/20 06:49:48;;;;;;;7.87;5.80;;;;;;;12.27;85.65;102064.88;4913407;29;20753;-83
2023/05/20 06:52:19;;;;;;;6.10;5.50;;;;;;;12.36;85.74;102053.75;4917311;29;20544;-80
2023/05/20 06:54:48;;;;;;;10.40;6.30;;;;;;;12.53;84.91;102063.41;4921423;29;20509;-80
2023/05/20 06:57:18;;;;;;;7.80;6.13;;;;;;;12.45;84.89;102055.34;4938720;29;20433;-85
2023/05/20 06:59:47;;;;;;;8.20;6.60;;;;;;;12.45;84.91;102051.78;4938464;29;20461;-87
2023/05/20 07:02:18;;;;;;;6.43;5.40;;;;;;;12.49;85.10;102050.41;4907924;29;20477;-83
2023/05/20 07:04:47;;;;;;;10.03;8.87;;;;;;;12.49;84.78;102050.41;4919334;29;20448;-83
2023/05/20 07:07:18;;;;;;;9.13;6.63;;;;;;;12.64;84.41;102049.34;4921899;29;20433;-84
2023/05/20 07:09:48;;;;;;;8.67;5.90;;;;;;;12.67;84.28;102052.72;4913865;29;20999;-83
2023/05/20 07:12:17;;;;;;;10.40;6.43;;;;;;;12.75;84.15;102056.19;4920972;29;20456;-82
2023/05/20 07:14:47;;;;;;;7.90;7.20;;;;;;;12.93;82.93;102053.91;4921232;29;20439;-82
2023/05/20 07:17:16;;;;;;;9.27;6.23;;;;;;;12.94;83.39;102049.31;4918994;29;20445;-83
2023/05/20 07:19:47;;;;;;;7.03;5.43;;;;;;;13.08;82.27;102046.56;4927349;29;20476;-82
2023/05/20 07:22:18;;;;;;;7.00;5.90;;;;;;;13.13;81.96;102045.19;4925431;29;20434;-83
2023/05/20 07:24:56;;;;;;;6.10;5.30;;;;;;;13.15;81.94;102046.69;4916858;29;20423;-82
2023/05/20 07:27:25;;;;;;;9.73;6.50;;;;;;;13.21;81.48;102051.38;4920476;29;20543;-83
2023/05/20 07:29:55;;;;;;;7.80;6.53;;;;;;;13.22;82.26;102060.34;4915845;29;20531;-82
2023/05/20 07:32:27;;;;;;;10.73;6.23;;;;;;;13.28;81.56;102051.44;4918500;29;20433;-82
2023/05/20 07:35:01;;;;;;;10.43;6.63;;;;;;;13.45;80.94;102048.31;4914426;29;20465;-80
2023/05/20 07:37:35;;;;;;;7.10;5.77;;;;;;;13.47;80.50;102040.78;4925730;29;20420;-84
2023/05/20 07:40:06;;;;;;;8.27;6.67;;;;;;;13.55;80.37;102036.25;4931557;29;20525;-81
2023/05/20 07:42:40;;;;;;;11.47;7.60;;;;;;;13.55;80.66;102036.25;4929321;29;20501;-82
2023/05/20 07:45:14;;;;;;;7.77;5.70;;;;;;;13.86;79.45;102037.59;4928555;29;20458;-83
2023/05/20 07:47:50;;;;;;;13.00;6.80;;;;;;;14.03;78.25;102040.88;4921650;29;20425;-83
2023/05/20 07:50:27;;;;;;;10.43;6.00;;;;;;;14.09;77.69;102034.63;4914863;29;20512;-83
2023/05/20 07:52:59;;;;;;;11.30;6.77;;;;;;;14.22;76.64;102045.63;4925654;29;20432;-82
2023/05/20 07:55:34;;;;;;;10.13;6.30;;;;;;;14.32;75.91;102034.41;4921231;29;20420;-82
2023/05/20 07:58:05;;;;;;;9.77;6.40;;;;;;;14.41;75.55;102035.09;4931258;29;20457;-82
2023/05/20 08:00:36;;;;;;;6.33;5.70;;;;;;;14.50;74.90;102032.03;4936096;28;20450;-82
2023/05/20 08:03:08;;;;;;;6.73;6.03;;;;;;;14.65;74.93;102029.19;4936879;29;20431;-80
2023/05/20 08:05:51;;;;;;;8.60;6.07;;;;;;;14.93;73.97;102019.03;4930350;29;20528;-84
2023/05/20 08:08:22;;;;;;;7.20;6.23;;;;;;;15.11;73.17;102030.19;4935130;29;20449;-84
2023/05/20 08:10:56;;;;;;;7.00;6.30;;;;;;;15.23;72.32;102023.13;4924029;29;20457;-84
2023/05/20 08:13:29;;;;;;;7.97;6.57;;;;;;;15.37;71.30;102023.16;4926843;29;20449;-82
2023/05/20 08:16:02;;;;;;;10.20;6.87;;;;;;;15.25;71.38;102022.91;4918607;29;20454;-82
2023/05/20 08:18:32;;;;;;;8.10;6.93;;;;;;;15.14;71.67;102024.34;4918420;29;20470;-82
2023/05/20 08:21:01;;;;;;;7.00;6.30;;;;;;;15.08;72.11;102018.88;4923511;29;20430;-83
2023/05/20 08:23:32;;;;;;;8.00;6.93;;;;;;;15.13;71.96;102014.50;4923788;29;20463;-83
2023/05/20 08:26:06;;;;;;;8.23;6.40;;;;;;;15.43;70.66;102004.06;4923589;29;20453;-83
2023/05/20 08:28:38;;;;;;;7.83;6.17;;;;;;;15.87;69.02;102014.44;4915729;29;20453;-81
2023/05/20 08:31:09;;;;;;;8.43;5.83;;;;;;;15.70;69.09;102002.25;4911762;29;20503;-82
2023/05/20 08:33:38;;;;;;;10.87;6.43;;;;;;;15.69;69.12;102008.75;4910992;29;20492;-80
2023/05/20 08:36:08;;;;;;;6.90;5.90;;;;;;;15.68;69.16;102004.34;4936620;29;20396;-81
2023/05/20 08:38:39;;;;;;;10.00;6.70;;;;;;;15.81;68.72;102000.78;4934716;28;20456;-85
2023/05/20 08:41:08;;;;;;;10.17;5.30;;;;;;;15.62;68.96;102006.03;4938482;28;20439;-84
2023/05/20 08:43:40;;;;;;;6.93;5.90;;;;;;;15.99;67.88;102000.97;4933057;29;20455;-87
2023/05/20 08:46:10;;;;;;;6.90;5.30;;;;;;;16.32;66.41;101995.47;4919648;29;20433;-84
2023/05/20 08:48:41;;;;;;;7.10;6.17;;;;;;;16.78;65.02;101996.22;4937189;29;20448;-80
2023/05/20 08:51:13;;;;;;;9.23;5.77;;;;;;;16.93;63.73;101998.66;4936725;29;20431;-84
2023/05/20 08:54:03;;;;;;;6.30;5.53;;;;;;;16.78;63.16;101990.75;4917863;29;20448;-85
2023/05/20 08:56:33;;;;;;;7.83;5.43;;;;;;;16.59;64.27;102002.59;4921839;29;20811;-85
2023/05/20 08:59:05;;;;;;;6.80;5.83;;;;;;;16.51;64.28;102002.78;4927281;29;20887;-83
2023/05/20 09:01:43;;;;;;;7.47;5.70;;;;;;;16.93;63.47;101996.78;4935182;29;20413;-84
2023/05/20 09:04:51;;;;;;;9.70;6.40;;;;;;;16.86;63.60;101986.91;4922844;29;20461;-84
2023/05/20 09:24:50;;;;;;;7.50;6.80;;;;;;;16.03;66.90;102004.97;4846214;29;20599;-86
2023/05/20 09:27:23;;;;;;;7.03;6.23;;;;;;;16.17;66.34;101997.63;4848182;29;20447;-87
2023/05/20 09:29:53;;;;;;;8.53;6.23;;;;;;;16.13;66.90;101991.72;4880943;29;20498;-85
2023/05/20 09:32:27;;;;;;;9.00;5.87;;;;;;;16.47;65.88;101987.84;4933289;29;20442;-84
2023/05/20 09:35:10;;;;;;;6.83;5.40;;;;;;;16.33;66.03;101992.53;4927674;29;20416;-84
2023/05/20 09:37:50;;;;;;;5.80;5.23;;;;;;;16.31;66.09;101983.72;4924369;29;20408;-86
2023/05/20 09:40:43;;;;;;;6.63;5.97;;;;;;;16.34;66.65;101986.00;4928975;29;20430;-83
2023/05/20 09:43:21;;;;;;;6.73;5.80;;;;;;;16.57;65.43;101980.06;4931169;29;20459;-82
2023/05/20 09:46:31;;;;;;;9.33;6.17;;;;;;;16.69;65.13;101980.25;4922773;29;20462;-81
2023/05/20 09:49:25;;;;;;;8.70;7.03;;;;;;;16.05;67.15;101978.28;4925298;29;20466;-82
2023/05/20 09:52:11;;;;;;;7.70;6.30;;;;;;;16.19;67.18;101973.66;4928499;29;20856;-83
2023/05/20 09:54:48;;;;;;;8.63;7.30;;;;;;;16.56;66.01;101983.84;4924465;29;20804;-86
2023/05/20 09:57:23;;;;;;;7.90;6.90;;;;;;;16.72;65.12;101980.66;4905685;29;20517;-86
2023/05/20 09:59:58;;;;;;;7.43;6.10;;;;;;;16.89;64.80;101981.84;4915058;29;20495;-84
2023/05/20 10:02:46;;;;;;;11.90;8.43;;;;;;;16.58;65.30;101981.78;4923305;29;20405;-83
2023/05/20 10:05:29;;;;;;;8.20;7.40;;;;;;;16.66;65.30;101989.72;4924338;29;20572;-83
2023/05/20 10:08:36;;;;;;;8.83;7.37;;;;;;;16.63;65.36;101987.44;4927852;29;20550;-83
2023/05/20 10:11:20;;;;;;;8.40;6.90;;;;;;;16.74;65.12;101983.19;4896673;29;20453;-83
2023/05/20 10:14:15;;;;;;;10.30;7.47;;;;;;;16.99;64.19;101977.81;4917130;29;20456;-83
2023/05/20 10:16:53;;;;;;;8.67;7.77;;;;;;;16.77;65.05;101980.84;4923426;29;20780;-84
2023/05/20 10:19:44;;;;;;;7.87;6.80;;;;;;;16.87;64.78;101983.97;4914224;29;20962;-84
2023/05/20 10:22:31;;;;;;;9.10;7.60;;;;;;;16.93;64.61;101979.53;4914512;29;20453;-84
2023/05/20 10:25:09;;;;;;;11.67;7.90;;;;;;;16.92;64.47;101983.31;4916673;29;20425;-85
2023/05/20 10:27:47;;;;;;;11.53;8.03;;;;;;;16.76;65.31;101975.59;4920230;29;20419;-84
2023/05/20 10:30:21;;;;;;;9.03;7.70;;;;;;;16.54;66.33;101977.75;4918545;29;20472;-82
2023/05/20 10:32:55;;;;;;;12.40;8.30;;;;;;;16.49;66.88;101975.69;4921970;29;20439;-83
2023/05/20 10:35:27;;;;;;;9.07;7.53;;;;;;;16.53;66.73;101973.34;4929087;29;20427;-84
2023/05/20 10:38:09;;;;;;;9.60;8.50;;;;;;;16.64;66.63;101967.25;4927253;29;20479;-85
2023/05/20 10:40:39;;;;;;;8.50;7.47;;;;;;;16.20;67.88;101959.78;4928493;29;20946;-84
2023/05/20 10:43:15;;;;;;;10.70;8.43;;;;;;;16.33;68.07;101967.94;4929340;29;20492;-85
2023/05/20 10:45:54;;;;;;;9.17;8.23;;;;;;;16.97;66.27;101972.56;4930544;29;20479;-82
2023/05/20 10:48:26;;;;;;;9.03;7.97;;;;;;;17.25;64.72;101966.72;4931499;29;20459;-84
2023/05/20 10:50:57;;;;;;;9.47;7.70;;;;;;;17.20;64.68;101952.84;4922540;29;20449;-84
2023/05/20 10:53:27;;;;;;;9.63;8.10;;;;;;;16.94;65.20;101945.66;4918655;29;20463;-83
2023/05/20 10:56:02;;;;;;;9.10;7.80;;;;;;;17.12;65.53;101948.50;4924843;29;20776;-85
2023/05/20 10:58:54;;;;;;;11.50;6.60;;;;;;;17.12;65.19;101948.50;5138528;23;20449;31
2023/05/20 11:01:26;;;;;;;9.80;6.83;;;;;;;17.33;64.12;101939.09;4902949;29;20470;-70
2023/05/20 11:03:57;;;;;;;9.07;7.40;;;;;;;17.51;63.11;101939.16;4905072;29;20438;-71
2023/05/20 11:06:28;;;;;;;11.07;7.93;;;;;;;17.50;62.67;101929.28;4886110;29;20413;-69
2023/05/20 11:09:06;;;;;;;10.33;8.07;;;;;;;17.74;61.96;101939.41;4885679;29;20498;-68
2023/05/20 11:11:37;;;;;;;9.73;7.70;;;;;;;17.99;60.84;101920.22;4886986;29;20475;-66
2023/05/20 11:14:06;;;;;;;10.50;8.37;;;;;;;18.07;60.39;101921.81;4883266;29;20509;-70
2023/05/20 11:16:37;;;;;;;8.97;8.07;;;;;;;17.87;60.52;101918.44;4885224;29;20461;-67
2023/05/20 11:19:08;;;;;;;9.63;7.17;;;;;;;17.76;60.96;101918.16;4879932;29;20770;-68
2023/05/20 11:21:44;;;;;;;9.50;8.23;;;;;;;17.85;61.30;101928.81;4880864;29;20442;-69
2023/05/20 11:24:13;;;;;;;12.50;9.40;;;;;;;17.93;60.79;101920.28;4880591;29;20431;-70
2023/05/20 11:26:42;;;;;;;10.30;8.33;;;;;;;17.94;61.14;101919.22;4881766;29;20885;-68
2023/05/20 11:29:11;;;;;;;10.10;8.10;;;;;;;18.23;59.78;101913.84;4880039;29;21047;-68
2023/05/20 11:31:42;;;;;;;11.77;8.83;;;;;;;18.24;59.60;101910.06;4882966;29;20476;-70
2023/05/20 11:34:11;;;;;;;9.10;8.20;;;;;;;18.26;58.60;101912.53;4881406;29;20467;-71
2023/05/20 11:36:41;;;;;;;11.77;8.90;;;;;;;18.20;59.00;101911.56;4881658;29;20496;-70
2023/05/20 11:39:12;;;;;;;9.47;8.30;;;;;;;18.86;57.22;101896.22;4894134;29;20575;-70
2023/05/20 11:41:43;;;;;;;9.00;7.57;;;;;;;18.69;57.84;101906.16;4885794;29;20500;-70
2023/05/20 11:44:12;;;;;;;10.47;9.37;;;;;;;18.67;58.04;101917.34;4880343;29;20530;-69
2023/05/20 11:46:48;;;;;;;10.40;8.17;;;;;;;18.89;56.92;101920.41;4875733;29;20435;-70
2023/05/20 11:49:17;;;;;;;9.07;7.90;;;;;;;19.37;56.24;101907.44;4875652;29;20454;-68
2023/05/20 11:51:46;;;;;;;9.67;8.77;;;;;;;19.44;55.95;101910.97;4880643;29;20467;-71
2023/05/20 11:54:16;;;;;;;9.77;8.77;;;;;;;19.52;55.70;101907.84;4879013;29;21464;-70
2023/05/20 11:56:45;;;;;;;8.70;7.63;;;;;;;19.81;55.83;101922.56;4879253;29;20435;-70
2023/05/20 11:59:15;;;;;;;15.23;8.77;;;;;;;19.81;55.38;101905.25;4877610;29;20479;-70
2023/05/20 12:01:46;;;;;;;12.00;8.47;;;;;;;20.03;55.00;101897.25;4876485;29;20425;-71
2023/05/20 12:04:15;;;;;;;9.87;8.57;;;;;;;20.05;54.71;101901.41;4879609;29;20516;-69